St Petersburg Clearwater International Airport
KPIE : rendu visible

Aérodrome :











RETROUVEZ-NOUS SUR...

 
LOGIN :

S'inscrire | Disclaimer

   EN    FR    IT 

 









Légende :    VFR   VFR Marginal   IFR   IFR Intensif   IFR Très Intensif
Visi : 
Plafond : 
>= 8 km
>= 3000ft
5 à 8 km
1000 à 3000 ft
1500m à 5 km
500 à 1000 ft
800 à 1500m
200 à 500 ft
< 800m
< 200 ft
Symboles :   Orages  Brouillard  Fortes neiges  Fortes précipitations  Vent > 20 kt






- Altitude de l'aérodrome : 11 ft
- Code IATA : PIE


KPIE - St Petersburg Clearwater International

DERNIER METAR :
  • 171353Z 02008KT 10SM OVC009 12/09 A2998 RMK AO2 SLP153 T01220089

METARs EXPIRÉS :
  • 171253Z 35010KT 10SM OVC007 12/09 A2999 RMK AO2 SLP155 T01170089
  • 171153Z 01008KT 10SM OVC007 12/09 A2997 RMK AO2 SLP148 T01170089 10117 20111 53012

TAF KPIE
Valide du 17 à 13h jusqu'au 18 à 12h UTC


171310Z 1713/1812 01010KT P6SM OVC008
FM171500 01007KT P6SM SCT015
TEMPO 1715/1718 BKN015
FM171800 35008KT P6SM SCT030 SCT250
FM172300 35006KT P6SM SCT250



MET'MAP, la Météo Aéronautique d'un coup d'oeil ! - Copyright ORBIFLY Décembre 2007 - Disclaimer

ORBIFLY MET'MAP TEAM :

Programmation & Développement : Alexandra Zaïnal
Conception & Développement : Baudouin d'Aumeries
Co-Programmation & Développement : Marc-Olivier Méhu
Soutien technique & logistique : Manuel Goepfert

Contact : metmap@orbifly.com




SOURCES & CREDITS :

   NOAA       Earth
Advisory